sensor_id;sensor_type;location;lat;lon;timestamp;pressure;altitude;pressure_sealevel;temperature;humidity
5380;BME280;2713;42.680;23.310;2023-07-31T00:01:10;94715.94;;;24.64;61.43
5380;BME280;2713;42.680;23.310;2023-07-31T00:03:36;94718.31;;;24.65;62.02
5380;BME280;2713;42.680;23.310;2023-07-31T00:06:03;94723.16;;;24.58;62.38
5380;BME280;2713;42.680;23.310;2023-07-31T00:08:30;94728.72;;;24.57;61.79
5380;BME280;2713;42.680;23.310;2023-07-31T00:10:56;94724.56;;;24.36;62.90
5380;BME280;2713;42.680;23.310;2023-07-31T00:13:25;94729.38;;;24.29;62.95
5380;BME280;2713;42.680;23.310;2023-07-31T00:15:51;94723.56;;;24.27;63.06
5380;BME280;2713;42.680;23.310;2023-07-31T00:18:18;94722.72;;;24.36;62.85
5380;BME280;2713;42.680;23.310;2023-07-31T00:20:45;94714.78;;;24.31;62.59
5380;BME280;2713;42.680;23.310;2023-07-31T00:23:12;94729.13;;;24.30;63.86
5380;BME280;2713;42.680;23.310;2023-07-31T00:25:39;94717.25;;;24.02;65.94
5380;BME280;2713;42.680;23.310;2023-07-31T00:28:06;94714.09;;;24.00;66.43
5380;BME280;2713;42.680;23.310;2023-07-31T00:30:34;94706.88;;;24.01;66.51
5380;BME280;2713;42.680;23.310;2023-07-31T00:33:01;94702.63;;;24.15;66.44
5380;BME280;2713;42.680;23.310;2023-07-31T00:35:29;94689.84;;;24.12;67.36
5380;BME280;2713;42.680;23.310;2023-07-31T00:37:58;94688.84;;;24.03;67.70
5380;BME280;2713;42.680;23.310;2023-07-31T00:40:25;94681.38;;;24.10;67.23
5380;BME280;2713;42.680;23.310;2023-07-31T00:42:52;94690.63;;;24.28;66.97
5380;BME280;2713;42.680;23.310;2023-07-31T00:45:18;94693.28;;;24.22;67.01
5380;BME280;2713;42.680;23.310;2023-07-31T00:47:47;94686.44;;;24.06;67.79
5380;BME280;2713;42.680;23.310;2023-07-31T00:50:14;94694.41;;;24.06;67.96
5380;BME280;2713;42.680;23.310;2023-07-31T00:52:41;94695.16;;;24.12;67.91
5380;BME280;2713;42.680;23.310;2023-07-31T00:55:08;94697.31;;;24.05;68.25
5380;BME280;2713;42.680;23.310;2023-07-31T00:57:36;94691.28;;;23.89;69.19
5380;BME280;2713;42.680;23.310;2023-07-31T01:00:05;94679.31;;;23.97;68.64
5380;BME280;2713;42.680;23.310;2023-07-31T01:02:33;94677.16;;;24.04;68.59
5380;BME280;2713;42.680;23.310;2023-07-31T01:05:01;94683.53;;;23.98;68.59
5380;BME280;2713;42.680;23.310;2023-07-31T01:07:35;94676.72;;;23.77;69.30
5380;BME280;2713;42.680;23.310;2023-07-31T01:10:11;94679.84;;;23.89;68.96
5380;BME280;2713;42.680;23.310;2023-07-31T01:12:42;94687.81;;;23.94;68.89
5380;BME280;2713;42.680;23.310;2023-07-31T01:15:09;94680.13;;;23.92;68.92
5380;BME280;2713;42.680;23.310;2023-07-31T01:17:37;94665.53;;;23.85;69.33
5380;BME280;2713;42.680;23.310;2023-07-31T01:20:11;94672.19;;;23.82;69.59
5380;BME280;2713;42.680;23.310;2023-07-31T01:23:14;94672.44;;;23.86;69.67
5380;BME280;2713;42.680;23.310;2023-07-31T01:26:00;94661.34;;;23.63;70.46
5380;BME280;2713;42.680;23.310;2023-07-31T01:28:33;94674.31;;;23.80;69.99
5380;BME280;2713;42.680;23.310;2023-07-31T01:31:06;94670.63;;;23.76;70.00
5380;BME280;2713;42.680;23.310;2023-07-31T01:33:34;94669.31;;;23.63;70.52
5380;BME280;2713;42.680;23.310;2023-07-31T01:36:03;94664.56;;;23.55;71.15
5380;BME280;2713;42.680;23.310;2023-07-31T01:38:30;94659.28;;;23.35;71.86
5380;BME280;2713;42.680;23.310;2023-07-31T01:40:58;94663.78;;;23.35;72.36
5380;BME280;2713;42.680;23.310;2023-07-31T01:43:25;94664.59;;;23.45;72.13
5380;BME280;2713;42.680;23.310;2023-07-31T01:45:52;94662.72;;;23.51;71.69
5380;BME280;2713;42.680;23.310;2023-07-31T01:48:19;94660.84;;;23.61;71.73
5380;BME280;2713;42.680;23.310;2023-07-31T01:50:46;94667.22;;;23.40;72.67
5380;BME280;2713;42.680;23.310;2023-07-31T01:53:13;94667.47;;;23.54;72.22
5380;BME280;2713;42.680;23.310;2023-07-31T01:55:40;94672.53;;;23.55;72.41
5380;BME280;2713;42.680;23.310;2023-07-31T01:58:09;94668.31;;;23.44;72.72
5380;BME280;2713;42.680;23.310;2023-07-31T02:00:36;94688.47;;;23.35;73.38
5380;BME280;2713;42.680;23.310;2023-07-31T02:03:01;94674.13;;;23.31;73.61
5380;BME280;2713;42.680;23.310;2023-07-31T02:05:28;94673.88;;;23.17;74.36
5380;BME280;2713;42.680;23.310;2023-07-31T02:07:55;94677.59;;;23.27;74.05
5380;BME280;2713;42.680;23.310;2023-07-31T02:10:26;94669.66;;;23.21;73.96
5380;BME280;2713;42.680;23.310;2023-07-31T02:12:53;94680.22;;;23.27;74.08
5380;BME280;2713;42.680;23.310;2023-07-31T02:15:21;94677.06;;;23.24;74.30
5380;BME280;2713;42.680;23.310;2023-07-31T02:17:48;94677.88;;;23.15;74.77
5380;BME280;2713;42.680;23.310;2023-07-31T02:20:14;94680.50;;;23.10;75.09
5380;BME280;2713;42.680;23.310;2023-07-31T02:22:41;94680.50;;;23.05;75.63
5380;BME280;2713;42.680;23.310;2023-07-31T02:25:08;94675.47;;;22.93;76.17
5380;BME280;2713;42.680;23.310;2023-07-31T02:27:35;94677.34;;;23.03;76.00
5380;BME280;2713;42.680;23.310;2023-07-31T02:30:02;94680.50;;;23.05;75.83
5380;BME280;2713;42.680;23.310;2023-07-31T02:32:30;94671.22;;;23.22;75.21
5380;BME280;2713;42.680;23.310;2023-07-31T02:34:56;94679.44;;;23.26;74.88
5380;BME280;2713;42.680;23.310;2023-07-31T02:37:25;94674.41;;;23.24;75.17
5380;BME280;2713;42.680;23.310;2023-07-31T02:39:54;94677.03;;;23.30;74.83
5380;BME280;2713;42.680;23.310;2023-07-31T02:42:20;94673.09;;;23.17;75.15
5380;BME280;2713;42.680;23.310;2023-07-31T02:44:47;94683.19;;;23.15;75.19
5380;BME280;2713;42.680;23.310;2023-07-31T02:47:16;94688.47;;;23.15;75.13
5380;BME280;2713;42.680;23.310;2023-07-31T02:49:45;94690.59;;;23.18;74.99
5380;BME280;2713;42.680;23.310;2023-07-31T02:52:12;94691.38;;;23.13;75.01
5380;BME280;2713;42.680;23.310;2023-07-31T02:54:38;94697.72;;;23.22;74.56
5380;BME280;2713;42.680;23.310;2023-07-31T02:57:05;94696.41;;;23.40;74.09
5380;BME280;2713;42.680;23.310;2023-07-31T02:59:32;94700.66;;;23.46;73.37
5380;BME280;2713;42.680;23.310;2023-07-31T03:01:59;94709.13;;;23.58;72.82
5380;BME280;2713;42.680;23.310;2023-07-31T03:04:26;94717.63;;;23.50;72.88
5380;BME280;2713;42.680;23.310;2023-07-31T03:06:54;94707.81;;;23.66;72.49
5380;BME280;2713;42.680;23.310;2023-07-31T03:09:20;94707.25;;;23.69;72.00
5380;BME280;2713;42.680;23.310;2023-07-31T03:11:48;94717.31;;;23.77;71.66
5380;BME280;2713;42.680;23.310;2023-07-31T03:14:15;94718.88;;;23.88;71.50
5380;BME280;2713;42.680;23.310;2023-07-31T03:16:41;94721.28;;;23.85;71.31
5380;BME280;2713;42.680;23.310;2023-07-31T03:19:08;94716.50;;;23.82;71.52
5380;BME280;2713;42.680;23.310;2023-07-31T03:21:35;94705.16;;;23.61;72.27
5380;BME280;2713;42.680;23.310;2023-07-31T03:24:04;94712.31;;;23.65;72.55
5380;BME280;2713;42.680;23.310;2023-07-31T03:26:31;94714.41;;;23.73;72.24
5380;BME280;2713;42.680;23.310;2023-07-31T03:28:58;94715.47;;;23.78;72.32
5380;BME280;2713;42.680;23.310;2023-07-31T03:31:25;94715.75;;;23.76;72.21
5380;BME280;2713;42.680;23.310;2023-07-31T03:33:52;94727.97;;;23.72;72.12
5380;BME280;2713;42.680;23.310;2023-07-31T03:36:19;94718.91;;;23.78;71.91
5380;BME280;2713;42.680;23.310;2023-07-31T03:38:46;94726.91;;;23.68;72.13
5380;BME280;2713;42.680;23.310;2023-07-31T03:41:14;94731.16;;;23.64;72.46
5380;BME280;2713;42.680;23.310;2023-07-31T03:43:45;94725.03;;;23.63;72.45
5380;BME280;2713;42.680;23.310;2023-07-31T03:46:12;94732.75;;;23.65;72.34
5380;BME280;2713;42.680;23.310;2023-07-31T03:48:38;94730.88;;;23.76;71.80
5380;BME280;2713;42.680;23.310;2023-07-31T03:51:05;94739.34;;;23.83;71.29
5380;BME280;2713;42.680;23.310;2023-07-31T03:53:32;94740.44;;;23.77;71.53
5380;BME280;2713;42.680;23.310;2023-07-31T03:55:59;94735.38;;;23.75;71.54
5380;BME280;2713;42.680;23.310;2023-07-31T03:58:27;94734.91;;;23.48;72.51
5380;BME280;2713;42.680;23.310;2023-07-31T04:00:53;94741.25;;;23.11;74.16
5380;BME280;2713;42.680;23.310;2023-07-31T04:03:20;94745.75;;;23.26;73.92
5380;BME280;2713;42.680;23.310;2023-07-31T04:05:47;94751.06;;;23.31;73.60
5380;BME280;2713;42.680;23.310;2023-07-31T04:08:14;94747.34;;;23.17;74.19
5380;BME280;2713;42.680;23.310;2023-07-31T04:10:41;94749.22;;;23.21;74.14
5380;BME280;2713;42.680;23.310;2023-07-31T04:13:07;94747.59;;;23.20;73.79
5380;BME280;2713;42.680;23.310;2023-07-31T04:15:35;94755.00;;;22.98;74.86
5380;BME280;2713;42.680;23.310;2023-07-31T04:18:02;94748.66;;;22.94;75.11
5380;BME280;2713;42.680;23.310;2023-07-31T04:20:29;94751.03;;;22.96;74.97
5380;BME280;2713;42.680;23.310;2023-07-31T04:22:56;94754.50;;;23.32;73.52
5380;BME280;2713;42.680;23.310;2023-07-31T04:25:22;94754.78;;;23.35;73.29
5380;BME280;2713;42.680;23.310;2023-07-31T04:27:49;94751.56;;;23.13;74.16
5380;BME280;2713;42.680;23.310;2023-07-31T04:30:16;94760.59;;;23.12;74.07
5380;BME280;2713;42.680;23.310;2023-07-31T04:32:44;94760.06;;;23.20;73.75
5380;BME280;2713;42.680;23.310;2023-07-31T04:35:11;94764.06;;;23.28;73.55
5380;BME280;2713;42.680;23.310;2023-07-31T04:37:38;94754.81;;;23.45;72.56
5380;BME280;2713;42.680;23.310;2023-07-31T04:40:06;94752.41;;;23.44;72.23
5380;BME280;2713;42.680;23.310;2023-07-31T04:42:33;94753.44;;;23.53;71.95
5380;BME280;2713;42.680;23.310;2023-07-31T04:45:00;94751.34;;;23.55;71.74
5380;BME280;2713;42.680;23.310;2023-07-31T04:47:27;94752.13;;;23.55;71.22
5380;BME280;2713;42.680;23.310;2023-07-31T04:49:55;94748.16;;;23.58;71.12
5380;BME280;2713;42.680;23.310;2023-07-31T04:52:22;94751.03;;;23.71;70.73
5380;BME280;2713;42.680;23.310;2023-07-31T04:54:49;94751.00;;;23.92;70.06
5380;BME280;2713;42.680;23.310;2023-07-31T04:57:15;94753.09;;;24.15;68.68
5380;BME280;2713;42.680;23.310;2023-07-31T04:59:42;94754.09;;;24.29;68.32
5380;BME280;2713;42.680;23.310;2023-07-31T05:02:12;94752.56;;;24.13;68.55
5380;BME280;2713;42.680;23.310;2023-07-31T05:04:39;94757.00;;;24.38;67.68
5380;BME280;2713;42.680;23.310;2023-07-31T05:07:07;94750.19;;;24.70;66.47
5380;BME280;2713;42.680;23.310;2023-07-31T05:09:34;94754.59;;;24.90;65.44
5380;BME280;2713;42.680;23.310;2023-07-31T05:12:00;94754.78;;;25.04;65.16
5380;BME280;2713;42.680;23.310;2023-07-31T05:14:27;94748.59;;;24.69;65.55
5380;BME280;2713;42.680;23.310;2023-07-31T05:16:54;94743.19;;;24.80;65.62
5380;BME280;2713;42.680;23.310;2023-07-31T05:19:21;94754.13;;;25.22;64.79
5380;BME280;2713;42.680;23.310;2023-07-31T05:21:47;94751.72;;;25.59;62.60
5380;BME280;2713;42.680;23.310;2023-07-31T05:24:16;94752.84;;;25.53;62.94
5380;BME280;2713;42.680;23.310;2023-07-31T05:26:42;94751.88;;;25.39;62.73
5380;BME280;2713;42.680;23.310;2023-07-31T05:29:09;94755.47;;;25.19;63.41
5380;BME280;2713;42.680;23.310;2023-07-31T05:31:36;94762.69;;;25.53;62.01
5380;BME280;2713;42.680;23.310;2023-07-31T05:34:03;94752.50;;;25.26;62.38
5380;BME280;2713;42.680;23.310;2023-07-31T05:36:30;94753.69;;;25.44;62.23
5380;BME280;2713;42.680;23.310;2023-07-31T05:38:57;94753.47;;;25.69;61.21
5380;BME280;2713;42.680;23.310;2023-07-31T05:41:25;94747.00;;;26.04;60.13
5380;BME280;2713;42.680;23.310;2023-07-31T05:43:52;94737.25;;;25.94;59.00
5380;BME280;2713;42.680;23.310;2023-07-31T05:46:18;94751.59;;;25.75;59.41
5380;BME280;2713;42.680;23.310;2023-07-31T05:48:45;94752.31;;;25.80;59.59
5380;BME280;2713;42.680;23.310;2023-07-31T05:51:12;94750.97;;;25.83;58.83
5380;BME280;2713;42.680;23.310;2023-07-31T05:53:39;94748.69;;;25.37;59.72
5380;BME280;2713;42.680;23.310;2023-07-31T05:56:06;94750.44;;;25.18;60.23
5380;BME280;2713;42.680;23.310;2023-07-31T05:58:34;94753.25;;;25.65;59.52
5380;BME280;2713;42.680;23.310;2023-07-31T06:01:01;94754.16;;;26.08;57.98
5380;BME280;2713;42.680;23.310;2023-07-31T06:03:28;94751.22;;;26.34;56.84
5380;BME280;2713;42.680;23.310;2023-07-31T06:05:56;94765.66;;;26.51;55.60
5380;BME280;2713;42.680;23.310;2023-07-31T06:08:22;94767.78;;;25.78;56.35
5380;BME280;2713;42.680;23.310;2023-07-31T06:10:49;94770.47;;;25.78;56.42
5380;BME280;2713;42.680;23.310;2023-07-31T06:13:16;94766.97;;;26.06;55.94
5380;BME280;2713;42.680;23.310;2023-07-31T06:15:44;94771.66;;;26.43;54.14
5380;BME280;2713;42.680;23.310;2023-07-31T06:18:11;94770.91;;;26.80;52.47
5380;BME280;2713;42.680;23.310;2023-07-31T06:20:38;94765.31;;;27.19;51.67
5380;BME280;2713;42.680;23.310;2023-07-31T06:23:06;94768.16;;;27.09;51.28
5380;BME280;2713;42.680;23.310;2023-07-31T06:25:33;94767.59;;;26.69;52.01
5380;BME280;2713;42.680;23.310;2023-07-31T06:27:59;94771.56;;;26.30;53.48
5380;BME280;2713;42.680;23.310;2023-07-31T06:30:26;94766.66;;;26.13;53.94
5380;BME280;2713;42.680;23.310;2023-07-31T06:32:54;94772.28;;;25.54;55.34
5380;BME280;2713;42.680;23.310;2023-07-31T06:35:21;94774.13;;;25.48;56.07
5380;BME280;2713;42.680;23.310;2023-07-31T06:37:48;94762.38;;;25.88;55.24
5380;BME280;2713;42.680;23.310;2023-07-31T06:40:16;94763.41;;;26.63;53.44
5380;BME280;2713;42.680;23.310;2023-07-31T06:42:43;94760.81;;;26.77;52.60
5380;BME280;2713;42.680;23.310;2023-07-31T06:45:10;94762.75;;;26.71;53.08
5380;BME280;2713;42.680;23.310;2023-07-31T06:47:37;94754.22;;;27.12;52.19
5380;BME280;2713;42.680;23.310;2023-07-31T06:50:06;94766.63;;;27.21;51.53
5380;BME280;2713;42.680;23.310;2023-07-31T06:52:33;94758.47;;;27.13;51.06
5380;BME280;2713;42.680;23.310;2023-07-31T06:55:01;94764.78;;;26.80;51.36
5380;BME280;2713;42.680;23.310;2023-07-31T06:57:29;94766.31;;;26.43;52.66
5380;BME280;2713;42.680;23.310;2023-07-31T06:59:56;94766.25;;;26.91;50.78
5380;BME280;2713;42.680;23.310;2023-07-31T07:02:23;94757.19;;;26.92;51.07
5380;BME280;2713;42.680;23.310;2023-07-31T07:04:50;94757.41;;;26.71;51.52
5380;BME280;2713;42.680;23.310;2023-07-31T07:07:18;94745.19;;;27.08;51.12
5380;BME280;2713;42.680;23.310;2023-07-31T07:09:45;94758.25;;;27.28;50.56
5380;BME280;2713;42.680;23.310;2023-07-31T07:12:12;94752.53;;;27.16;50.71
5380;BME280;2713;42.680;23.310;2023-07-31T07:14:39;94764.84;;;26.32;52.78
5380;BME280;2713;42.680;23.310;2023-07-31T07:17:06;94756.94;;;25.69;54.22
5380;BME280;2713;42.680;23.310;2023-07-31T07:19:32;94752.03;;;25.53;54.06
5380;BME280;2713;42.680;23.310;2023-07-31T07:21:59;94766.34;;;25.91;53.16
5380;BME280;2713;42.680;23.310;2023-07-31T07:24:29;94769.59;;;26.35;52.07
5380;BME280;2713;42.680;23.310;2023-07-31T07:26:56;94752.50;;;26.79;50.54
5380;BME280;2713;42.680;23.310;2023-07-31T07:29:22;94763.06;;;27.45;49.25
5380;BME280;2713;42.680;23.310;2023-07-31T07:31:49;94755.69;;;27.55;49.08
5380;BME280;2713;42.680;23.310;2023-07-31T07:34:16;94755.69;;;28.01;47.75
5380;BME280;2713;42.680;23.310;2023-07-31T07:36:43;94747.50;;;27.65;48.15
5380;BME280;2713;42.680;23.310;2023-07-31T07:39:10;94739.19;;;28.13;47.59
5380;BME280;2713;42.680;23.310;2023-07-31T07:41:39;94758.69;;;28.13;47.53
5380;BME280;2713;42.680;23.310;2023-07-31T07:44:05;94748.25;;;27.98;47.35
5380;BME280;2713;42.680;23.310;2023-07-31T07:46:32;94761.97;;;28.51;46.25
5380;BME280;2713;42.680;23.310;2023-07-31T07:48:59;94754.13;;;28.41;46.32
5380;BME280;2713;42.680;23.310;2023-07-31T07:51:26;94757.69;;;28.64;45.84
5380;BME280;2713;42.680;23.310;2023-07-31T07:53:53;94762.84;;;28.74;45.02
5380;BME280;2713;42.680;23.310;2023-07-31T07:56:19;94759.78;;;28.40;44.61
5380;BME280;2713;42.680;23.310;2023-07-31T07:58:49;94755.22;;;28.40;43.79
5380;BME280;2713;42.680;23.310;2023-07-31T08:01:17;94768.91;;;28.25;44.88
5380;BME280;2713;42.680;23.310;2023-07-31T08:03:43;94767.50;;;28.55;44.57
5380;BME280;2713;42.680;23.310;2023-07-31T08:06:10;94768.09;;;28.52;45.62
5380;BME280;2713;42.680;23.310;2023-07-31T08:08:37;94750.66;;;28.68;44.74
5380;BME280;2713;42.680;23.310;2023-07-31T08:11:04;94755.78;;;28.64;44.68
5380;BME280;2713;42.680;23.310;2023-07-31T08:13:31;94758.00;;;28.35;45.15
5380;BME280;2713;42.680;23.310;2023-07-31T08:15:59;94760.50;;;27.86;46.96
5380;BME280;2713;42.680;23.310;2023-07-31T08:18:26;94781.41;;;27.14;47.84
5380;BME280;2713;42.680;23.310;2023-07-31T08:20:53;94774.66;;;27.86;46.71
5380;BME280;2713;42.680;23.310;2023-07-31T08:23:20;94776.22;;;28.33;45.51
5380;BME280;2713;42.680;23.310;2023-07-31T08:25:47;94769.34;;;27.67;46.44
5380;BME280;2713;42.680;23.310;2023-07-31T08:28:15;94765.16;;;27.29;48.21
5380;BME280;2713;42.680;23.310;2023-07-31T08:30:42;94769.66;;;28.26;46.29
5380;BME280;2713;42.680;23.310;2023-07-31T08:33:10;94768.19;;;27.60;46.60
5380;BME280;2713;42.680;23.310;2023-07-31T08:35:37;94776.13;;;27.28;47.41
5380;BME280;2713;42.680;23.310;2023-07-31T08:38:03;94764.31;;;28.26;45.26
5380;BME280;2713;42.680;23.310;2023-07-31T08:40:30;94753.38;;;29.04;43.24
5380;BME280;2713;42.680;23.310;2023-07-31T08:42:58;94757.38;;;29.15;42.78
5380;BME280;2713;42.680;23.310;2023-07-31T08:45:28;94761.94;;;29.28;42.75
5380;BME280;2713;42.680;23.310;2023-07-31T08:47:55;94757.19;;;28.76;44.13
5380;BME280;2713;42.680;23.310;2023-07-31T08:50:24;94747.91;;;28.73;44.26
5380;BME280;2713;42.680;23.310;2023-07-31T08:52:52;94756.91;;;28.09;45.36
5380;BME280;2713;42.680;23.310;2023-07-31T08:55:19;94762.25;;;27.63;46.02
5380;BME280;2713;42.680;23.310;2023-07-31T08:57:50;94735.47;;;27.95;44.78
5380;BME280;2713;42.680;23.310;2023-07-31T09:00:18;94755.59;;;28.61;43.59
5380;BME280;2713;42.680;23.310;2023-07-31T09:02:53;94760.41;;;29.00;42.62
5380;BME280;2713;42.680;23.310;2023-07-31T09:05:21;94764.25;;;28.72;43.29
5380;BME280;2713;42.680;23.310;2023-07-31T09:07:51;94758.19;;;28.66;43.10
5380;BME280;2713;42.680;23.310;2023-07-31T09:10:18;94752.16;;;28.33;43.65
5380;BME280;2713;42.680;23.310;2023-07-31T09:12:45;94752.94;;;28.34;43.58
5380;BME280;2713;42.680;23.310;2023-07-31T09:15:13;94754.94;;;28.55;42.69
5380;BME280;2713;42.680;23.310;2023-07-31T09:17:40;94746.47;;;28.89;41.94
5380;BME280;2713;42.680;23.310;2023-07-31T09:20:14;94743.91;;;29.42;41.08
5380;BME280;2713;42.680;23.310;2023-07-31T09:22:42;94741.09;;;29.69;41.32
5380;BME280;2713;42.680;23.310;2023-07-31T09:25:20;94740.94;;;29.44;41.64
5380;BME280;2713;42.680;23.310;2023-07-31T09:27:49;94737.22;;;29.76;41.29
5380;BME280;2713;42.680;23.310;2023-07-31T09:30:17;94736.91;;;29.10;42.09
5380;BME280;2713;42.680;23.310;2023-07-31T09:32:45;94719.66;;;29.25;41.59
5380;BME280;2713;42.680;23.310;2023-07-31T09:35:19;94725.41;;;29.54;40.64
5380;BME280;2713;42.680;23.310;2023-07-31T09:37:51;94728.00;;;29.68;40.81
5380;BME280;2713;42.680;23.310;2023-07-31T09:40:30;94732.94;;;29.75;40.57
5380;BME280;2713;42.680;23.310;2023-07-31T09:42:59;94729.25;;;29.62;40.65
5380;BME280;2713;42.680;23.310;2023-07-31T09:45:26;94723.47;;;29.77;40.59
5380;BME280;2713;42.680;23.310;2023-07-31T09:47:53;94726.16;;;29.99;39.48
5380;BME280;2713;42.680;23.310;2023-07-31T09:50:21;94726.59;;;29.70;40.48
5380;BME280;2713;42.680;23.310;2023-07-31T09:52:48;94715.72;;;29.89;40.08
5380;BME280;2713;42.680;23.310;2023-07-31T09:55:15;94721.09;;;29.98;39.68
5380;BME280;2713;42.680;23.310;2023-07-31T09:57:45;94709.19;;;29.59;40.48
5380;BME280;2713;42.680;23.310;2023-07-31T10:00:13;94713.19;;;29.70;39.77
5380;BME280;2713;42.680;23.310;2023-07-31T10:02:41;94707.84;;;29.70;39.73
5380;BME280;2713;42.680;23.310;2023-07-31T10:05:13;94714.28;;;29.39;40.33
5380;BME280;2713;42.680;23.310;2023-07-31T10:07:42;94707.41;;;29.77;39.48
5380;BME280;2713;42.680;23.310;2023-07-31T10:10:10;94713.19;;;29.93;39.71
5380;BME280;2713;42.680;23.310;2023-07-31T10:12:37;94712.13;;;30.02;39.75
5380;BME280;2713;42.680;23.310;2023-07-31T10:15:08;94714.63;;;29.99;39.22
5380;BME280;2713;42.680;23.310;2023-07-31T10:17:36;94717.41;;;29.63;39.01
5380;BME280;2713;42.680;23.310;2023-07-31T10:20:03;94710.59;;;29.79;39.16
5380;BME280;2713;42.680;23.310;2023-07-31T10:22:31;94709.66;;;29.84;39.22
5380;BME280;2713;42.680;23.310;2023-07-31T10:24:59;94703.09;;;29.67;39.25
5380;BME280;2713;42.680;23.310;2023-07-31T10:27:29;94705.69;;;29.81;38.86
5380;BME280;2713;42.680;23.310;2023-07-31T10:29:57;94700.16;;;30.00;38.33
5380;BME280;2713;42.680;23.310;2023-07-31T10:32:26;94702.84;;;29.78;38.89
5380;BME280;2713;42.680;23.310;2023-07-31T10:34:53;94696.50;;;29.74;39.07
5380;BME280;2713;42.680;23.310;2023-07-31T10:37:25;94711.13;;;29.37;39.08
5380;BME280;2713;42.680;23.310;2023-07-31T10:39:57;94697.19;;;29.26;39.13
5380;BME280;2713;42.680;23.310;2023-07-31T10:42:28;94699.53;;;29.50;38.80
5380;BME280;2713;42.680;23.310;2023-07-31T10:44:57;94695.41;;;29.75;39.23
5380;BME280;2713;42.680;23.310;2023-07-31T10:47:26;94685.06;;;29.82;38.71
5380;BME280;2713;42.680;23.310;2023-07-31T10:50:10;94696.34;;;29.70;38.54
5380;BME280;2713;42.680;23.310;2023-07-31T10:52:37;94689.41;;;29.38;39.13
5380;BME280;2713;42.680;23.310;2023-07-31T10:55:15;94689.50;;;29.33;38.64
5380;BME280;2713;42.680;23.310;2023-07-31T10:57:44;94681.38;;;29.38;38.31
5380;BME280;2713;42.680;23.310;2023-07-31T11:00:20;94668.09;;;29.33;38.89
5380;BME280;2713;42.680;23.310;2023-07-31T11:03:00;94676.56;;;29.57;37.81
5380;BME280;2713;42.680;23.310;2023-07-31T11:05:50;94671.47;;;29.78;37.29
5380;BME280;2713;42.680;23.310;2023-07-31T11:08:20;94662.16;;;29.76;37.03
5380;BME280;2713;42.680;23.310;2023-07-31T11:10:49;94644.53;;;29.44;36.71
5380;BME280;2713;42.680;23.310;2023-07-31T11:13:16;94669.47;;;29.84;36.60
5380;BME280;2713;42.680;23.310;2023-07-31T11:15:43;94663.47;;;29.87;36.70
5380;BME280;2713;42.680;23.310;2023-07-31T11:18:13;94668.47;;;29.80;37.35
5380;BME280;2713;42.680;23.310;2023-07-31T11:20:42;94635.22;;;29.41;37.15
5380;BME280;2713;42.680;23.310;2023-07-31T11:23:11;94640.06;;;29.39;37.38
5380;BME280;2713;42.680;23.310;2023-07-31T11:25:39;94674.00;;;29.83;37.15
5380;BME280;2713;42.680;23.310;2023-07-31T11:28:09;94668.91;;;30.04;35.95
5380;BME280;2713;42.680;23.310;2023-07-31T11:30:37;94660.69;;;30.00;35.71
5380;BME280;2713;42.680;23.310;2023-07-31T11:33:05;94669.34;;;29.89;35.94
5380;BME280;2713;42.680;23.310;2023-07-31T11:35:35;94664.78;;;29.98;36.25
5380;BME280;2713;42.680;23.310;2023-07-31T11:38:02;94657.91;;;29.75;36.71
5380;BME280;2713;42.680;23.310;2023-07-31T11:40:29;94670.34;;;29.70;37.05
5380;BME280;2713;42.680;23.310;2023-07-31T11:42:57;94652.06;;;29.19;38.54
5380;BME280;2713;42.680;23.310;2023-07-31T11:45:27;94656.94;;;28.95;39.46
5380;BME280;2713;42.680;23.310;2023-07-31T11:47:55;94660.69;;;28.94;39.08
5380;BME280;2713;42.680;23.310;2023-07-31T11:50:26;94666.69;;;29.13;38.53
5380;BME280;2713;42.680;23.310;2023-07-31T11:52:57;94649.44;;;29.06;37.87
5380;BME280;2713;42.680;23.310;2023-07-31T11:55:26;94645.69;;;29.29;38.02
5380;BME280;2713;42.680;23.310;2023-07-31T11:57:56;94655.06;;;29.40;37.89
5380;BME280;2713;42.680;23.310;2023-07-31T12:00:24;94652.19;;;29.37;37.66
5380;BME280;2713;42.680;23.310;2023-07-31T12:02:52;94651.44;;;29.23;37.89
5380;BME280;2713;42.680;23.310;2023-07-31T12:05:19;94654.56;;;29.16;38.58
5380;BME280;2713;42.680;23.310;2023-07-31T12:07:50;94640.13;;;29.48;38.55
5380;BME280;2713;42.680;23.310;2023-07-31T12:10:26;94647.84;;;29.49;38.28
5380;BME280;2713;42.680;23.310;2023-07-31T12:12:58;94644.53;;;29.52;38.70
5380;BME280;2713;42.680;23.310;2023-07-31T12:15:30;94639.47;;;29.42;38.43
5380;BME280;2713;42.680;23.310;2023-07-31T12:17:58;94637.09;;;29.41;38.68
5380;BME280;2713;42.680;23.310;2023-07-31T12:20:25;94629.34;;;29.39;38.30
5380;BME280;2713;42.680;23.310;2023-07-31T12:22:56;94629.81;;;29.33;39.71
5380;BME280;2713;42.680;23.310;2023-07-31T12:25:30;94627.47;;;29.40;39.36
5380;BME280;2713;42.680;23.310;2023-07-31T12:27:57;94627.56;;;28.82;39.01
5380;BME280;2713;42.680;23.310;2023-07-31T12:30:28;94633.56;;;28.87;39.13
5380;BME280;2713;42.680;23.310;2023-07-31T12:32:55;94642.16;;;28.98;38.84
5380;BME280;2713;42.680;23.310;2023-07-31T12:35:22;94638.00;;;28.92;38.40
5380;BME280;2713;42.680;23.310;2023-07-31T12:37:49;94641.53;;;29.01;37.65
5380;BME280;2713;42.680;23.310;2023-07-31T12:40:16;94636.91;;;29.15;37.29
5380;BME280;2713;42.680;23.310;2023-07-31T12:42:44;94635.59;;;29.26;37.63
5380;BME280;2713;42.680;23.310;2023-07-31T12:45:11;94631.06;;;29.13;37.65
5380;BME280;2713;42.680;23.310;2023-07-31T12:47:38;94637.78;;;29.02;37.45
5380;BME280;2713;42.680;23.310;2023-07-31T12:50:06;94625.53;;;28.87;38.65
5380;BME280;2713;42.680;23.310;2023-07-31T12:52:33;94625.59;;;28.74;38.94
5380;BME280;2713;42.680;23.310;2023-07-31T12:54:59;94627.09;;;28.66;38.83
5380;BME280;2713;42.680;23.310;2023-07-31T12:57:26;94621.03;;;28.74;38.68
5380;BME280;2713;42.680;23.310;2023-07-31T12:59:54;94618.19;;;28.93;38.93
5380;BME280;2713;42.680;23.310;2023-07-31T13:02:21;94612.00;;;29.28;38.14
5380;BME280;2713;42.680;23.310;2023-07-31T13:04:49;94608.59;;;29.23;38.68
5380;BME280;2713;42.680;23.310;2023-07-31T13:07:16;94599.31;;;29.20;38.84
5380;BME280;2713;42.680;23.310;2023-07-31T13:09:43;94598.72;;;29.01;39.20
5380;BME280;2713;42.680;23.310;2023-07-31T13:12:09;94605.28;;;28.95;39.16
5380;BME280;2713;42.680;23.310;2023-07-31T13:14:36;94612.94;;;28.88;39.50